Aberdeen, Kentucky
Current Conditions -  °F | °C
As of 6:53 PM on Wednesday 22 Oct 2014 (Local Time) from KBWG Reporting Station
Clear Clear  
Wind Chill: 52°   Ceiling: Unl
Heat Index: 52°   Visibility: 10mi
Dew Point: 40°   Wind: 3mph
Humidity: 63%   Direction: 30°NNE
Pressure: 30.22"   Gusts: NA
Location:  37.25°N, 86.68°W
Report Text: KBWG 222353Z AUTO 03003KT 10SM CLR 11/04 A3022 RMK AO2 SLP235 T01110044 10172 20111 53002
Loading
Personal Weather Stations






























Interactive Weather Map New forecast layout! Learn more

10-Day Weather Forecast

Advertisements
Track Severe Weather on mobile